createdAt,value
2022-08-09T00:00:04.495Z,71.04
2022-08-09T00:02:33.327Z,71.27
2022-08-09T00:05:03.711Z,71.88
2022-08-09T00:07:46.931Z,71.33
2022-08-09T00:10:14.402Z,72.15
2022-08-09T00:12:52.795Z,72.22
2022-08-09T00:15:26.615Z,71.74
2022-08-09T00:18:12.148Z,71.43
2022-08-09T00:20:42.427Z,72.26
2022-08-09T00:23:56.056Z,72.76
2022-08-09T00:26:05.067Z,72.84
2022-08-09T00:28:31.932Z,73.36
2022-08-09T00:31:01.189Z,73.72
2022-08-09T00:33:50.360Z,73.96
2022-08-09T00:36:17.856Z,74.10
2022-08-09T00:38:45.270Z,74.39
2022-08-09T00:41:11.842Z,74.46
2022-08-09T00:44:13.946Z,74.81
2022-08-09T00:46:55.760Z,74.54
2022-08-09T00:49:23.304Z,74.70
2022-08-09T00:51:56.072Z,74.96
2022-08-09T00:54:31.487Z,75.10
2022-08-09T00:57:02.207Z,75.59
2022-08-09T00:59:41.551Z,75.68
2022-08-09T01:02:21.934Z,75.94
2022-08-09T01:05:00.790Z,76.37
2022-08-09T01:08:00.690Z,76.60
2022-08-09T01:10:32.546Z,76.72
2022-08-09T01:13:12.931Z,77.12
2022-08-09T01:15:52.225Z,77.31
2022-08-09T01:18:29.661Z,77.28
2022-08-09T01:21:44.820Z,78.15
2022-08-09T01:24:39.109Z,77.98
2022-08-09T01:27:15.162Z,78.35
2022-08-09T01:29:56.095Z,78.62
2022-08-09T01:32:31.153Z,79.35
2022-08-09T01:35:18.288Z,79.60
2022-08-09T01:38:07.872Z,79.67
2022-08-09T01:40:41.172Z,79.91
2022-08-09T01:43:08.722Z,79.74
2022-08-09T01:45:46.215Z,79.48
2022-08-09T01:48:17.086Z,79.64
2022-08-09T01:50:54.968Z,79.39
2022-08-09T01:53:22.618Z,79.58
2022-08-09T01:55:50.915Z,80.25
2022-08-09T01:58:17.704Z,80.58
2022-08-09T02:00:46.332Z,80.96
2022-08-09T02:03:19.303Z,80.68
2022-08-09T02:06:03.899Z,80.63
2022-08-09T02:08:56.953Z,80.42
2022-08-09T02:11:23.677Z,81.45
2022-08-09T02:14:02.055Z,81.18
2022-08-09T02:16:53.094Z,81.12
2022-08-09T02:19:23.973Z,81.61
2022-08-09T02:21:55.197Z,81.85
2022-08-09T02:24:26.647Z,81.96
2022-08-09T02:26:58.607Z,82.23
2022-08-09T02:29:31.264Z,81.74
2022-08-09T02:32:02.636Z,82.59
2022-08-09T02:34:40.571Z,82.07
2022-08-09T02:37:21.519Z,81.82
2022-08-09T02:40:01.816Z,82.02
2022-08-09T02:42:37.059Z,82.50
2022-08-09T02:45:15.318Z,82.48
2022-08-09T02:47:58.121Z,82.18
2022-08-09T02:50:36.561Z,82.49
2022-08-09T02:53:09.996Z,82.99
2022-08-09T02:55:58.330Z,83.14
2022-08-09T02:58:36.559Z,83.21
2022-08-09T03:01:08.183Z,83.52
2022-08-09T03:04:17.773Z,83.66
2022-08-09T03:06:27.405Z,83.94
2022-08-09T03:08:56.661Z,84.03
2022-08-09T03:12:05.241Z,83.97
2022-08-09T03:14:12.625Z,83.91
2022-08-09T03:16:44.714Z,83.51
2022-08-09T03:19:14.313Z,83.53
2022-08-09T03:22:03.352Z,83.77
2022-08-09T03:24:42.717Z,84.05
2022-08-09T03:27:17.526Z,84.51
2022-08-09T03:29:58.263Z,83.71
2022-08-09T03:32:30.949Z,83.97
2022-08-09T03:34:58.561Z,84.43
2022-08-09T03:37:56.414Z,84.30
2022-08-09T03:40:13.484Z,84.30
2022-08-09T03:42:44.208Z,84.37
2022-08-09T03:45:11.547Z,84.38
2022-08-09T03:47:41.889Z,84.79
2022-08-09T03:50:12.211Z,84.91
2022-08-09T03:52:41.789Z,84.65
2022-08-09T03:55:10.429Z,84.95
2022-08-09T03:57:53.655Z,84.90
2022-08-09T04:00:28.533Z,85.11
2022-08-09T04:02:57.288Z,85.48
2022-08-09T04:05:27.307Z,85.35
2022-08-09T04:07:57.667Z,85.31
2022-08-09T04:10:29.519Z,85.28
2022-08-09T04:13:01.384Z,85.45
2022-08-09T04:16:18.721Z,85.13
2022-08-09T04:18:17.980Z,84.93
2022-08-09T04:20:47.345Z,85.38
2022-08-09T04:23:17.322Z,85.34
2022-08-09T04:25:51.819Z,85.59
2022-08-09T04:28:32.887Z,85.63
2022-08-09T04:31:09.243Z,85.47
2022-08-09T04:33:52.333Z,85.24
2022-08-09T04:36:23.417Z,85.05
2022-08-09T04:38:51.011Z,85.12
2022-08-09T04:41:18.574Z,85.43
2022-08-09T04:43:46.576Z,85.18
2022-08-09T04:46:57.747Z,85.20
2022-08-09T04:49:22.348Z,84.99
2022-08-09T04:52:06.143Z,85.13
2022-08-09T04:54:34.097Z,84.63
2022-08-09T04:57:00.479Z,84.41
2022-08-09T04:59:30.338Z,84.21
2022-08-09T05:01:56.734Z,84.31
2022-08-09T05:04:23.226Z,84.55
2022-08-09T05:06:57.354Z,84.33
2022-08-09T05:09:24.453Z,84.53
2022-08-09T05:11:51.494Z,84.56
2022-08-09T05:14:18.384Z,84.43
2022-08-09T05:16:58.728Z,84.22
2022-08-09T05:19:31.937Z,83.79
2022-08-09T05:22:36.111Z,83.89
2022-08-09T05:24:57.475Z,84.35
2022-08-09T05:27:31.068Z,84.50
2022-08-09T05:29:57.965Z,83.52
2022-08-09T05:32:26.072Z,82.79
2022-08-09T05:34:56.658Z,84.44
2022-08-09T05:37:23.230Z,83.66
2022-08-09T05:39:51.797Z,81.89
2022-08-09T05:42:21.927Z,81.40
2022-08-09T05:44:55.407Z,80.86
2022-08-09T05:47:23.718Z,80.08
2022-08-09T05:50:26.786Z,79.75
2022-08-09T05:52:42.640Z,79.65
2022-08-09T05:55:18.204Z,79.96
2022-08-09T05:57:51.383Z,77.77
2022-08-09T06:00:22.796Z,77.00
2022-08-09T06:02:49.308Z,76.85
2022-08-09T06:05:20.816Z,75.87
2022-08-09T06:08:08.086Z,73.57
2022-08-09T06:10:35.640Z,73.07
2022-08-09T06:13:20.144Z,69.81
2022-08-09T06:15:51.617Z,69.83
2022-08-09T06:18:20.479Z,67.00
2022-08-09T06:20:54.537Z,67.24
2022-08-09T06:23:55.354Z,65.89
2022-08-09T06:26:21.309Z,62.77
2022-08-09T06:29:00.504Z,67.56
2022-08-09T06:31:31.052Z,63.38
2022-08-09T06:34:05.718Z,63.60
2022-08-09T06:36:33.803Z,64.45
2022-08-09T06:39:02.636Z,63.97
2022-08-09T06:42:06.404Z,66.58
2022-08-09T06:44:21.763Z,64.05
2022-08-09T06:46:48.106Z,65.62
2022-08-09T06:49:29.219Z,68.95
2022-08-09T06:52:02.944Z,68.16
2022-08-09T06:54:29.568Z,68.86
2022-08-09T06:56:55.912Z,68.70
2022-08-09T07:00:49.218Z,69.33
2022-08-09T07:02:08.667Z,69.00
2022-08-09T07:04:35.291Z,69.48
2022-08-09T07:07:05.021Z,68.06
2022-08-09T07:09:56.439Z,68.26
2022-08-09T07:12:20.214Z,67.49
2022-08-09T07:15:53.888Z,66.89
2022-08-09T07:17:55.944Z,67.21
2022-08-09T07:20:22.822Z,65.79
2022-08-09T07:22:53.527Z,65.20
2022-08-09T07:25:20.921Z,63.82
2022-08-09T07:27:53.456Z,63.12
2022-08-09T07:30:25.275Z,62.35
2022-08-09T07:32:52.807Z,62.51
2022-08-09T07:35:21.315Z,61.42
2022-08-09T07:37:49.360Z,60.89
2022-08-09T07:40:20.234Z,60.92
2022-08-09T07:42:54.553Z,60.45
2022-08-09T07:45:37.462Z,60.73
2022-08-09T07:48:28.862Z,60.13
2022-08-09T07:51:09.329Z,60.13
2022-08-09T07:54:04.955Z,59.73
2022-08-09T07:56:34.971Z,59.03
2022-08-09T07:59:10.505Z,58.08
2022-08-09T08:01:40.593Z,59.62
2022-08-09T08:04:10.637Z,58.60
2022-08-09T08:06:37.457Z,58.09
2022-08-09T08:09:42.472Z,58.45
2022-08-09T08:12:23.909Z,58.05
2022-08-09T08:14:55.002Z,59.10
2022-08-09T08:17:34.986Z,57.56
2022-08-09T08:20:13.195Z,57.04
2022-08-09T08:22:40.845Z,55.78
2022-08-09T08:25:13.261Z,56.65
2022-08-09T08:27:41.174Z,56.25
2022-08-09T08:30:11.505Z,55.56
2022-08-09T08:32:41.517Z,54.27
2022-08-09T08:35:22.475Z,55.06
2022-08-09T08:37:59.437Z,54.40
2022-08-09T08:40:29.703Z,55.32
2022-08-09T08:42:58.698Z,54.30
2022-08-09T08:45:53.323Z,53.89
2022-08-09T08:48:22.234Z,53.68
2022-08-09T08:50:49.264Z,54.62
2022-08-09T08:53:22.010Z,54.81
2022-08-09T08:55:48.731Z,54.49
2022-08-09T08:58:19.580Z,55.60
2022-08-09T09:00:54.295Z,54.81
2022-08-09T09:03:37.063Z,53.39
2022-08-09T09:06:05.199Z,54.60
2022-08-09T09:08:41.001Z,53.71
2022-08-09T09:11:17.745Z,52.52
2022-08-09T09:13:56.997Z,52.93
2022-08-09T09:16:34.571Z,52.53
2022-08-09T09:19:37.076Z,52.20
2022-08-09T09:21:56.639Z,53.41
2022-08-09T09:24:34.493Z,51.12
2022-08-09T09:27:02.555Z,52.15
2022-08-09T09:32:35.834Z,52.04
2022-08-09T09:35:09.106Z,51.38
2022-08-09T09:37:40.560Z,50.54
2022-08-09T09:40:08.499Z,49.63
2022-08-09T09:42:35.536Z,50.14
2022-08-09T09:45:06.572Z,50.01
2022-08-09T09:47:40.760Z,48.62
2022-08-09T09:50:15.902Z,49.69
2022-08-09T09:52:56.432Z,50.63
2022-08-09T09:55:32.002Z,50.19
2022-08-09T09:58:17.318Z,49.31
2022-08-09T10:00:58.490Z,49.40
2022-08-09T10:03:43.636Z,47.59
2022-08-09T10:06:11.684Z,48.00
2022-08-09T10:08:54.432Z,47.15
2022-08-09T10:11:53.930Z,48.02
2022-08-09T10:14:27.270Z,48.31
2022-08-09T10:17:11.343Z,47.83
2022-08-09T10:19:45.903Z,48.49
2022-08-09T10:22:12.696Z,48.15
2022-08-09T10:24:40.560Z,48.51
2022-08-09T10:27:10.351Z,49.57
2022-08-09T10:30:49.466Z,48.30
2022-08-09T10:32:42.517Z,48.03
2022-08-09T10:35:17.311Z,45.90
2022-08-09T10:37:47.729Z,47.11
2022-08-09T10:40:33.334Z,47.54
2022-08-09T10:43:04.591Z,46.93
2022-08-09T10:45:35.380Z,46.25
2022-08-09T10:48:36.936Z,45.19
2022-08-09T10:51:09.320Z,47.01
2022-08-09T10:53:54.821Z,45.10
2022-08-09T10:56:33.316Z,44.17
2022-08-09T10:59:23.223Z,45.55
2022-08-09T11:03:17.922Z,44.95
2022-08-09T11:05:25.116Z,43.56
2022-08-09T11:07:58.279Z,44.38
2022-08-09T11:10:53.229Z,43.40
2022-08-09T11:13:49.083Z,44.01
2022-08-09T11:16:35.491Z,42.18
2022-08-09T11:19:07.843Z,42.58
2022-08-09T11:22:05.026Z,44.41
2022-08-09T11:25:03.848Z,44.23
2022-08-09T11:28:08.017Z,43.58
2022-08-09T11:30:36.537Z,43.36
2022-08-09T11:33:24.808Z,43.74
2022-08-09T11:35:58.935Z,42.40
2022-08-09T11:38:32.063Z,42.66
2022-08-09T11:41:12.885Z,42.04
2022-08-09T11:43:47.494Z,42.62
2022-08-09T11:46:26.792Z,44.15
2022-08-09T11:49:00.887Z,41.19
2022-08-09T11:53:04.226Z,41.11
2022-08-09T11:55:39.919Z,41.11
2022-08-09T11:58:15.443Z,41.20
2022-08-09T12:00:49.882Z,41.10
2022-08-09T12:03:50.390Z,40.67
2022-08-09T12:06:26.625Z,39.90
2022-08-09T12:08:55.745Z,40.95
2022-08-09T12:11:24.530Z,41.17
2022-08-09T12:14:10.013Z,39.29
2022-08-09T12:16:45.334Z,39.21
2022-08-09T12:19:13.510Z,40.79
2022-08-09T12:21:50.720Z,39.46
2022-08-09T12:24:24.680Z,38.45
2022-08-09T12:29:00.186Z,38.36
2022-08-09T12:29:44.556Z,39.16
2022-08-09T12:32:26.263Z,39.81
2022-08-09T12:34:59.038Z,39.52
2022-08-09T12:37:44.229Z,37.71
2022-08-09T12:40:17.986Z,38.20
2022-08-09T12:42:45.957Z,38.77
2022-08-09T12:45:34.030Z,37.76
2022-08-09T12:47:59.247Z,37.14
2022-08-09T12:50:27.066Z,38.52
2022-08-09T12:53:18.436Z,37.02
2022-08-09T12:56:14.088Z,36.52
2022-08-09T12:58:28.677Z,36.74
2022-08-09T13:00:55.845Z,36.67
2022-08-09T13:03:53.300Z,39.49
2022-08-09T13:06:35.601Z,39.40
2022-08-09T13:09:06.834Z,39.21
2022-08-09T13:11:39.543Z,38.58
2022-08-09T13:14:43.838Z,38.02
2022-08-09T13:17:01.121Z,37.97
2022-08-09T13:20:09.981Z,37.27
2022-08-09T13:22:35.319Z,37.58
2022-08-09T13:25:12.065Z,39.21
2022-08-09T13:27:48.781Z,38.42
2022-08-09T13:30:50.715Z,37.24
2022-08-09T13:33:11.664Z,38.05
2022-08-09T13:36:23.357Z,36.63
2022-08-09T13:38:54.200Z,37.70
2022-08-09T13:41:55.683Z,37.59
2022-08-09T13:43:57.772Z,36.78
2022-08-09T13:47:16.038Z,37.85
2022-08-09T13:49:18.060Z,38.84
2022-08-09T13:51:58.824Z,38.38
2022-08-09T13:54:27.477Z,37.71
2022-08-09T13:56:56.787Z,36.10
2022-08-09T13:59:25.402Z,36.64
2022-08-09T14:02:01.316Z,37.70
2022-08-09T14:04:29.141Z,36.01
2022-08-09T14:07:00.912Z,35.51
2022-08-09T14:09:30.683Z,35.67
2022-08-09T14:12:02.071Z,35.85
2022-08-09T14:14:35.020Z,35.23
2022-08-09T14:17:01.679Z,36.60
2022-08-09T14:19:33.279Z,35.17
2022-08-09T14:22:00.218Z,36.62
2022-08-09T14:24:32.598Z,37.72
2022-08-09T14:27:00.238Z,37.31
2022-08-09T14:30:35.442Z,38.03
2022-08-09T14:32:16.469Z,38.97
2022-08-09T14:34:46.577Z,37.58
2022-08-09T14:37:22.316Z,37.55
2022-08-09T14:39:55.168Z,37.91
2022-08-09T14:42:31.002Z,36.22
2022-08-09T14:45:00.826Z,36.03
2022-08-09T14:47:45.247Z,34.45
2022-08-09T14:50:13.213Z,34.41
2022-08-09T14:52:43.007Z,35.50
2022-08-09T14:55:09.915Z,36.07
2022-08-09T14:57:43.181Z,35.93
2022-08-09T15:00:10.825Z,36.29
2022-08-09T15:02:37.582Z,38.00
2022-08-09T15:05:04.381Z,38.13
2022-08-09T15:07:35.376Z,37.04
2022-08-09T15:10:10.500Z,37.45
2022-08-09T15:12:37.807Z,38.52
2022-08-09T15:15:08.637Z,38.36
2022-08-09T15:17:41.867Z,38.91
2022-08-09T15:20:11.798Z,38.05
2022-08-09T15:22:46.645Z,37.57
2022-08-09T15:25:14.260Z,37.83
2022-08-09T15:27:47.709Z,39.07
2022-08-09T15:30:57.214Z,38.44
2022-08-09T15:33:07.820Z,38.53
2022-08-09T15:35:44.147Z,37.68
2022-08-09T15:38:12.185Z,38.23
2022-08-09T15:40:43.912Z,38.28
2022-08-09T15:43:13.446Z,38.60
2022-08-09T15:46:07.311Z,37.55
2022-08-09T15:48:29.484Z,38.11
2022-08-09T15:50:58.425Z,38.05
2022-08-09T15:54:03.829Z,38.18
2022-08-09T15:56:28.443Z,38.54
2022-08-09T15:58:56.052Z,37.56
2022-08-09T16:01:22.651Z,38.71
2022-08-09T16:03:50.870Z,39.40
2022-08-09T16:06:35.764Z,37.55
2022-08-09T16:09:05.491Z,37.93
2022-08-09T16:11:33.111Z,38.57
2022-08-09T16:14:04.082Z,37.80
2022-08-09T16:16:34.607Z,36.63
2022-08-09T16:19:01.410Z,38.33
2022-08-09T16:21:27.886Z,38.35
2022-08-09T16:24:02.311Z,38.48
2022-08-09T16:26:33.573Z,37.73
2022-08-09T16:29:10.604Z,37.88
2022-08-09T16:32:19.375Z,38.52
2022-08-09T16:34:27.222Z,37.36
2022-08-09T16:36:55.723Z,38.41
2022-08-09T16:39:26.046Z,38.19
2022-08-09T16:42:02.536Z,38.06
2022-08-09T16:44:31.554Z,38.06
2022-08-09T16:47:01.903Z,38.10
2022-08-09T16:50:29.749Z,38.66
2022-08-09T16:52:31.325Z,39.13
2022-08-09T16:54:57.989Z,38.61
2022-08-09T16:57:24.334Z,39.33
2022-08-09T16:59:57.449Z,37.94
2022-08-09T17:02:25.478Z,38.35
2022-08-09T17:04:52.087Z,37.89
2022-08-09T17:08:44.725Z,38.71
2022-08-09T17:10:08.715Z,38.85
2022-08-09T17:12:35.609Z,38.38
2022-08-09T17:15:02.180Z,38.15
2022-08-09T17:17:50.626Z,38.70
2022-08-09T17:20:32.428Z,39.04
2022-08-09T17:23:04.054Z,38.62
2022-08-09T17:25:32.013Z,38.31
2022-08-09T17:28:05.738Z,38.61
2022-08-09T17:30:33.462Z,38.80
2022-08-09T17:33:04.996Z,37.90
2022-08-09T17:35:33.958Z,38.17
2022-08-09T17:38:12.511Z,38.66
2022-08-09T17:40:41.336Z,38.24
2022-08-09T17:43:32.375Z,39.21
2022-08-09T17:46:04.431Z,38.79
2022-08-09T17:48:40.288Z,39.00
2022-08-09T17:51:17.507Z,38.90
2022-08-09T17:53:51.378Z,38.78
2022-08-09T17:56:19.466Z,39.16
2022-08-09T17:58:47.156Z,39.90
2022-08-09T18:01:22.682Z,40.10
2022-08-09T18:03:52.474Z,39.96
2022-08-09T18:06:31.301Z,39.66
2022-08-09T18:09:04.487Z,40.14
2022-08-09T18:12:05.517Z,39.95
2022-08-09T18:14:21.428Z,39.41
2022-08-09T18:16:49.591Z,39.74
2022-08-09T18:20:55.300Z,40.43
2022-08-09T18:22:03.543Z,40.65
2022-08-09T18:24:29.895Z,39.95
2022-08-09T18:26:57.783Z,40.63
2022-08-09T18:30:42.268Z,41.12
2022-08-09T18:32:14.141Z,40.56
2022-08-09T18:34:45.225Z,41.21
2022-08-09T18:37:47.657Z,40.82
2022-08-09T18:39:57.962Z,41.40
2022-08-09T18:42:29.248Z,41.51
2022-08-09T18:44:56.096Z,41.46
2022-08-09T18:47:24.311Z,41.52
2022-08-09T18:49:54.288Z,41.83
2022-08-09T18:52:34.624Z,41.92
2022-08-09T18:55:02.227Z,41.76
2022-08-09T18:57:38.412Z,42.40
2022-08-09T19:00:10.948Z,42.40
2022-08-09T19:02:38.221Z,42.53
2022-08-09T19:05:20.181Z,42.93
2022-08-09T19:08:04.786Z,43.24
2022-08-09T19:10:39.262Z,43.63
2022-08-09T19:13:20.388Z,43.96
2022-08-09T19:15:55.722Z,44.02
2022-08-09T19:18:33.976Z,43.96
2022-08-09T19:21:09.688Z,44.01
2022-08-09T19:24:37.669Z,44.35
2022-08-09T19:26:31.892Z,45.43
2022-08-09T19:29:09.435Z,45.89
2022-08-09T19:31:45.468Z,46.69
2022-08-09T19:34:21.782Z,47.30
2022-08-09T19:36:50.738Z,47.74
2022-08-09T19:39:17.167Z,48.33
2022-08-09T19:41:47.067Z,48.59
2022-08-09T19:44:17.705Z,48.82
2022-08-09T19:46:50.280Z,48.99
2022-08-09T19:50:09.905Z,48.64
2022-08-09T19:52:06.970Z,49.04
2022-08-09T19:54:33.378Z,49.33
2022-08-09T19:57:00.105Z,49.69
2022-08-09T19:59:58.858Z,49.70
2022-08-09T20:04:07.058Z,49.66
2022-08-09T20:05:01.445Z,49.92
2022-08-09T20:07:56.621Z,50.06
2022-08-09T20:10:22.029Z,50.47
2022-08-09T20:12:49.028Z,50.51
2022-08-09T20:16:37.028Z,51.08
2022-08-09T20:18:02.668Z,51.13
2022-08-09T20:20:28.995Z,51.50
2022-08-09T20:22:56.063Z,51.75
2022-08-09T20:25:23.202Z,51.80
2022-08-09T20:27:49.732Z,51.80
2022-08-09T20:30:17.928Z,52.00
2022-08-09T20:32:48.499Z,52.26
2022-08-09T20:35:19.040Z,52.48
2022-08-09T20:38:20.669Z,52.57
2022-08-09T20:40:31.877Z,52.69
2022-08-09T20:43:17.950Z,53.30
2022-08-09T20:46:00.270Z,53.36
2022-08-09T20:48:32.126Z,53.56
2022-08-09T20:51:00.785Z,53.63
2022-08-09T20:53:37.355Z,53.79
2022-08-09T20:56:09.338Z,53.82
2022-08-09T20:58:46.947Z,54.34
2022-08-09T21:01:34.673Z,54.27
2022-08-09T21:04:07.952Z,54.33
2022-08-09T21:06:48.496Z,54.52
2022-08-09T21:09:24.760Z,54.56
2022-08-09T21:14:33.825Z,54.88
2022-08-09T21:17:02.370Z,55.21
2022-08-09T21:20:16.985Z,55.44
2022-08-09T21:22:39.504Z,55.38
2022-08-09T21:25:06.441Z,55.87
2022-08-09T21:27:52.377Z,55.87
2022-08-09T21:30:20.049Z,56.08
2022-08-09T21:32:49.837Z,56.00
2022-08-09T21:35:16.565Z,56.35
2022-08-09T21:37:58.582Z,56.48
2022-08-09T21:40:30.638Z,56.39
2022-08-09T21:43:03.050Z,56.70
2022-08-09T21:45:30.447Z,56.73
2022-08-09T21:47:57.402Z,56.48
2022-08-09T21:50:33.852Z,56.88
2022-08-09T21:53:06.249Z,56.86
2022-08-09T21:55:32.659Z,56.97
2022-08-09T21:58:00.579Z,57.10
2022-08-09T22:00:33.195Z,57.20
2022-08-09T22:03:05.579Z,57.39
2022-08-09T22:05:37.382Z,57.25
2022-08-09T22:08:12.871Z,57.67
2022-08-09T22:11:00.216Z,57.75
2022-08-09T22:13:31.429Z,58.04
2022-08-09T22:16:03.775Z,57.94
2022-08-09T22:18:32.644Z,58.22
2022-08-09T22:20:59.239Z,58.50
2022-08-09T22:23:26.820Z,59.19
2022-08-09T22:26:07.825Z,59.23
2022-08-09T22:28:36.023Z,59.46
2022-08-09T22:31:13.657Z,59.86
2022-08-09T22:33:48.992Z,59.51
2022-08-09T22:36:21.456Z,59.56
2022-08-09T22:38:48.700Z,60.26
2022-08-09T22:41:15.089Z,60.80
2022-08-09T22:44:01.579Z,60.89
2022-08-09T22:48:10.613Z,61.31
2022-08-09T22:49:15.410Z,61.54
2022-08-09T22:51:43.467Z,61.67
2022-08-09T22:54:16.030Z,61.78
2022-08-09T22:56:47.528Z,61.78
2022-08-09T22:59:56.715Z,61.92
2022-08-09T23:02:03.622Z,62.25
2022-08-09T23:04:32.636Z,62.47
2022-08-09T23:06:59.281Z,62.58
2022-08-09T23:09:25.628Z,62.72
2022-08-09T23:11:51.984Z,62.92
2022-08-09T23:14:18.372Z,62.71
2022-08-09T23:17:04.796Z,63.15
2022-08-09T23:19:31.128Z,63.68
2022-08-09T23:22:17.501Z,63.62
2022-08-09T23:24:43.840Z,63.99
2022-08-09T23:27:15.060Z,64.52
2022-08-09T23:29:41.447Z,64.66
2022-08-09T23:32:07.813Z,65.19
2022-08-09T23:34:34.143Z,65.64
2022-08-09T23:37:00.582Z,65.59
2022-08-09T23:39:26.988Z,65.90
2022-08-09T23:41:53.438Z,66.34
2022-08-09T23:44:19.839Z,66.00
2022-08-09T23:46:46.279Z,65.25
2022-08-09T23:49:24.596Z,65.94
2022-08-09T23:51:51.511Z,65.35
2022-08-09T23:54:17.871Z,65.74
2022-08-09T23:56:53.920Z,65.97
2022-08-09T23:59:22.375Z,67.07
